Terminal Aerodrome Forecast
Issued by NWS

Home | Current Version | Previous Version | Graphics & Text | Print | Product List | Glossary On
Versions: 1 2 3 4 5 6 7 8 9 10 11 12 13 14 15
000
FTUS42 KMHX 260500
TAFOAJ
TAF
KOAJ 260523Z 2606/2706 35006KT P6SM SKC
     FM261300 04012G18KT P6SM BKN025 BKN040
     FM261800 04010G16KT P6SM SKC
     FM262300 05007KT P6SM SKC
      AMD LTD TO CLD VIS AND WIND=

USA.gov is the U.S. government's official web portal to all federal, state and local government web resources and services.